Terminal Aerodrome Forecast
Issued by NWS

Home | Current Version | Previous Version | Text Only | Print | Product List | Glossary On
Versions: 1 2 3 4 5 6 7 8 9 10 11 12 13 14 15 16 17 18 19 20 21 22 23 24 25 26 27 28 29 30 31 32 33 34 35 36 37 38 39 40 41 42 43
000
FTUS45 KGJT 241139
TAFVEL
TAFVEL
TAF
KVEL 241139Z 2412/2512 30005KT P6SM VCSH SCT060 BKN100
     FM241500 15003KT P6SM -SHRA SCT025 OVC050
     FM242100 13005KT P6SM VCTS SCT030CB OVC050
      TEMPO 2421/2501 VRB10G20KT -TSRA BKN030CB
     FM250300 35003KT P6SM VCSH OVC050=

USA.gov is the U.S. government's official web portal to all federal, state and local government web resources and services.